sensor_id;sensor_type;location;lat;lon;timestamp;pressure;altitude;pressure_sealevel;temperature;humidity
18795;BME280;29610;49.022;12.114;2022-12-29T00:00:16;97564.75;;;4.48;100.00
18795;BME280;29610;49.022;12.114;2022-12-29T00:02:45;97570.44;;;4.47;100.00
18795;BME280;29610;49.022;12.114;2022-12-29T00:05:15;97581.97;;;4.53;100.00
18795;BME280;29610;49.022;12.114;2022-12-29T00:07:43;97569.16;;;4.39;100.00
18795;BME280;29610;49.022;12.114;2022-12-29T00:10:12;97566.75;;;4.38;100.00
18795;BME280;29610;49.022;12.114;2022-12-29T00:12:41;97570.97;;;4.49;100.00
18795;BME280;29610;49.022;12.114;2022-12-29T00:15:27;97565.34;;;4.45;100.00
18795;BME280;29610;49.022;12.114;2022-12-29T00:18:08;97564.03;;;4.43;100.00
18795;BME280;29610;49.022;12.114;2022-12-29T00:20:38;97566.72;;;4.43;100.00
18795;BME280;29610;49.022;12.114;2022-12-29T00:23:33;97551.38;;;4.43;100.00
18795;BME280;29610;49.022;12.114;2022-12-29T00:26:19;97552.88;;;4.55;100.00
18795;BME280;29610;49.022;12.114;2022-12-29T00:29:07;97557.69;;;4.58;100.00
18795;BME280;29610;49.022;12.114;2022-12-29T00:31:56;97532.06;;;4.36;100.00
18795;BME280;29610;49.022;12.114;2022-12-29T00:34:44;97550.63;;;4.38;100.00
18795;BME280;29610;49.022;12.114;2022-12-29T00:37:32;97548.91;;;4.47;100.00
18795;BME280;29610;49.022;12.114;2022-12-29T00:40:14;97553.31;;;4.38;100.00
18795;BME280;29610;49.022;12.114;2022-12-29T00:43:00;97541.97;;;4.41;100.00
18795;BME280;29610;49.022;12.114;2022-12-29T00:45:47;97548.41;;;4.45;100.00
18795;BME280;29610;49.022;12.114;2022-12-29T00:48:15;97537.13;;;4.43;100.00
18795;BME280;29610;49.022;12.114;2022-12-29T00:51:05;97544.91;;;4.44;100.00
18795;BME280;29610;49.022;12.114;2022-12-29T00:53:35;97542.78;;;4.41;100.00
18795;BME280;29610;49.022;12.114;2022-12-29T00:56:04;97545.56;;;4.31;100.00
18795;BME280;29610;49.022;12.114;2022-12-29T00:58:33;97537.97;;;4.38;100.00
18795;BME280;29610;49.022;12.114;2022-12-29T01:01:02;97546.06;;;4.38;100.00
18795;BME280;29610;49.022;12.114;2022-12-29T01:03:33;97545.25;;;4.38;100.00
18795;BME280;29610;49.022;12.114;2022-12-29T01:06:03;97542.84;;;4.36;100.00
18795;BME280;29610;49.022;12.114;2022-12-29T01:08:34;97555.44;;;4.41;100.00
18795;BME280;29610;49.022;12.114;2022-12-29T01:11:06;97545.56;;;4.31;100.00
18795;BME280;29610;49.022;12.114;2022-12-29T01:13:35;97544.16;;;4.39;100.00
18795;BME280;29610;49.022;12.114;2022-12-29T01:16:06;97540.97;;;4.37;100.00
18795;BME280;29610;49.022;12.114;2022-12-29T01:18:35;97529.53;;;4.21;100.00
18795;BME280;29610;49.022;12.114;2022-12-29T01:21:05;97541.34;;;4.25;100.00
18795;BME280;29610;49.022;12.114;2022-12-29T01:23:35;97544.19;;;4.34;100.00
18795;BME280;29610;49.022;12.114;2022-12-29T01:26:11;97546.16;;;4.28;100.00
18795;BME280;29610;49.022;12.114;2022-12-29T01:28:40;97531.72;;;4.19;100.00
18795;BME280;29610;49.022;12.114;2022-12-29T01:31:11;97538.97;;;4.19;100.00
18795;BME280;29610;49.022;12.114;2022-12-29T01:33:40;97535.38;;;4.28;100.00
18795;BME280;29610;49.022;12.114;2022-12-29T01:36:12;97529.09;;;4.38;100.00
18795;BME280;29610;49.022;12.114;2022-12-29T01:38:44;97526.84;;;4.21;100.00
18795;BME280;29610;49.022;12.114;2022-12-29T01:41:17;97515.75;;;4.28;100.00
18795;BME280;29610;49.022;12.114;2022-12-29T01:43:49;97526.50;;;4.28;100.00
18795;BME280;29610;49.022;12.114;2022-12-29T01:46:25;97542.31;;;4.34;100.00
18795;BME280;29610;49.022;12.114;2022-12-29T01:49:02;97537.22;;;4.33;100.00
18795;BME280;29610;49.022;12.114;2022-12-29T01:51:38;97510.09;;;4.29;100.00
18795;BME280;29610;49.022;12.114;2022-12-29T01:54:13;97512.63;;;4.21;100.00
18795;BME280;29610;49.022;12.114;2022-12-29T01:56:45;97529.59;;;4.16;100.00
18795;BME280;29610;49.022;12.114;2022-12-29T01:59:19;97509.44;;;4.14;100.00
18795;BME280;29610;49.022;12.114;2022-12-29T02:01:50;97508.59;;;4.18;100.00
18795;BME280;29610;49.022;12.114;2022-12-29T02:04:19;97513.09;;;4.23;100.00
18795;BME280;29610;49.022;12.114;2022-12-29T02:06:53;97509.31;;;4.29;100.00
18795;BME280;29610;49.022;12.114;2022-12-29T02:09:25;97518.56;;;4.41;100.00
18795;BME280;29610;49.022;12.114;2022-12-29T02:11:54;97506.28;;;4.35;100.00
18795;BME280;29610;49.022;12.114;2022-12-29T02:14:23;97509.78;;;4.31;100.00
18795;BME280;29610;49.022;12.114;2022-12-29T02:17:05;97507.09;;;4.31;100.00
18795;BME280;29610;49.022;12.114;2022-12-29T02:20:28;97492.63;;;4.27;100.00
18795;BME280;29610;49.022;12.114;2022-12-29T02:26:34;97490.00;;;4.22;100.00
18795;BME280;29610;49.022;12.114;2022-12-29T02:29:31;97486.84;;;4.15;100.00
18795;BME280;29610;49.022;12.114;2022-12-29T02:32:17;97488.91;;;4.23;100.00
18795;BME280;29610;49.022;12.114;2022-12-29T02:35:01;97495.53;;;4.07;100.00
18795;BME280;29610;49.022;12.114;2022-12-29T02:37:42;97486.47;;;3.98;100.00
18795;BME280;29610;49.022;12.114;2022-12-29T02:40:24;97498.50;;;4.05;100.00
18795;BME280;29610;49.022;12.114;2022-12-29T02:43:04;97492.72;;;4.17;100.00
18795;BME280;29610;49.022;12.114;2022-12-29T02:45:44;97487.53;;;4.02;100.00
18795;BME280;29610;49.022;12.114;2022-12-29T02:48:24;97516.22;;;4.11;100.00
18795;BME280;29610;49.022;12.114;2022-12-29T02:51:01;97505.91;;;4.18;100.00
18795;BME280;29610;49.022;12.114;2022-12-29T02:53:34;97487.66;;;4.15;100.00
18795;BME280;29610;49.022;12.114;2022-12-29T02:56:22;97499.66;;;4.23;100.00
18795;BME280;29610;49.022;12.114;2022-12-29T02:58:51;97490.13;;;4.35;100.00
18795;BME280;29610;49.022;12.114;2022-12-29T03:01:33;97470.19;;;4.36;100.00
18795;BME280;29610;49.022;12.114;2022-12-29T03:04:37;97469.09;;;4.37;100.00
18795;BME280;29610;49.022;12.114;2022-12-29T03:07:19;97472.09;;;4.36;100.00
18795;BME280;29610;49.022;12.114;2022-12-29T03:09:59;97459.84;;;4.25;100.00
18795;BME280;29610;49.022;12.114;2022-12-29T03:12:43;97478.84;;;4.33;100.00
18795;BME280;29610;49.022;12.114;2022-12-29T03:15:44;97466.31;;;4.47;100.00
18795;BME280;29610;49.022;12.114;2022-12-29T03:18:44;97446.81;;;4.37;100.00
18795;BME280;29610;49.022;12.114;2022-12-29T03:21:24;97458.81;;;4.44;100.00
18795;BME280;29610;49.022;12.114;2022-12-29T03:24:20;97455.41;;;4.34;100.00
18795;BME280;29610;49.022;12.114;2022-12-29T03:26:55;97442.41;;;4.22;100.00
18795;BME280;29610;49.022;12.114;2022-12-29T03:29:30;97457.47;;;4.42;100.00
18795;BME280;29610;49.022;12.114;2022-12-29T03:32:04;97460.06;;;4.52;100.00
18795;BME280;29610;49.022;12.114;2022-12-29T03:34:36;97452.31;;;4.45;100.00
18795;BME280;29610;49.022;12.114;2022-12-29T03:37:12;97436.88;;;4.32;100.00
18795;BME280;29610;49.022;12.114;2022-12-29T03:39:45;97447.41;;;4.53;100.00
18795;BME280;29610;49.022;12.114;2022-12-29T03:42:19;97433.38;;;4.56;100.00
18795;BME280;29610;49.022;12.114;2022-12-29T03:44:54;97428.06;;;4.50;100.00
18795;BME280;29610;49.022;12.114;2022-12-29T03:47:25;97436.13;;;4.50;100.00
18795;BME280;29610;49.022;12.114;2022-12-29T03:49:54;97421.94;;;4.45;100.00
18795;BME280;29610;49.022;12.114;2022-12-29T03:52:24;97434.75;;;4.53;100.00
18795;BME280;29610;49.022;12.114;2022-12-29T03:54:54;97433.59;;;4.59;100.00
18795;BME280;29610;49.022;12.114;2022-12-29T03:57:22;97431.84;;;4.49;100.00
18795;BME280;29610;49.022;12.114;2022-12-29T04:00:07;97429.78;;;4.41;100.00
18795;BME280;29610;49.022;12.114;2022-12-29T04:02:44;97434.25;;;4.51;100.00
18795;BME280;29610;49.022;12.114;2022-12-29T04:05:19;97449.06;;;4.48;100.00
18795;BME280;29610;49.022;12.114;2022-12-29T04:07:51;97441.97;;;4.58;100.00
18795;BME280;29610;49.022;12.114;2022-12-29T04:10:19;97443.69;;;4.48;100.00
18795;BME280;29610;49.022;12.114;2022-12-29T04:12:51;97437.22;;;4.49;100.00
18795;BME280;29610;49.022;12.114;2022-12-29T04:15:20;97441.38;;;4.61;100.00
18795;BME280;29610;49.022;12.114;2022-12-29T04:17:48;97435.41;;;4.64;100.00
18795;BME280;29610;49.022;12.114;2022-12-29T04:20:17;97442.75;;;4.58;100.00
18795;BME280;29610;49.022;12.114;2022-12-29T04:23:07;97441.09;;;4.62;100.00
18795;BME280;29610;49.022;12.114;2022-12-29T04:25:37;97432.31;;;4.75;100.00
18795;BME280;29610;49.022;12.114;2022-12-29T04:28:08;97437.91;;;4.79;100.00
18795;BME280;29610;49.022;12.114;2022-12-29T04:30:49;97433.91;;;4.76;100.00
18795;BME280;29610;49.022;12.114;2022-12-29T04:33:21;97434.84;;;4.85;100.00
18795;BME280;29610;49.022;12.114;2022-12-29T04:35:49;97438.56;;;4.89;100.00
18795;BME280;29610;49.022;12.114;2022-12-29T04:38:23;97443.66;;;4.91;100.00
18795;BME280;29610;49.022;12.114;2022-12-29T04:40:52;97438.00;;;4.92;100.00
18795;BME280;29610;49.022;12.114;2022-12-29T04:43:23;97444.16;;;5.11;100.00
18795;BME280;29610;49.022;12.114;2022-12-29T04:46:15;97435.66;;;5.04;100.00
18795;BME280;29610;49.022;12.114;2022-12-29T04:49:13;97445.25;;;4.92;100.00
18795;BME280;29610;49.022;12.114;2022-12-29T04:52:08;97446.22;;;5.01;100.00
18795;BME280;29610;49.022;12.114;2022-12-29T04:54:39;97447.28;;;5.00;100.00
18795;BME280;29610;49.022;12.114;2022-12-29T04:57:13;97448.31;;;5.04;100.00
18795;BME280;29610;49.022;12.114;2022-12-29T04:59:45;97457.88;;;4.96;100.00
18795;BME280;29610;49.022;12.114;2022-12-29T05:02:14;97450.00;;;5.00;100.00
18795;BME280;29610;49.022;12.114;2022-12-29T05:04:46;97452.91;;;5.03;100.00
18795;BME280;29610;49.022;12.114;2022-12-29T05:07:16;97448.53;;;4.89;100.00
18795;BME280;29610;49.022;12.114;2022-12-29T05:09:47;97451.91;;;4.99;100.00
18795;BME280;29610;49.022;12.114;2022-12-29T05:12:16;97438.63;;;4.84;100.00
18795;BME280;29610;49.022;12.114;2022-12-29T05:14:57;97459.00;;;4.90;100.00
18795;BME280;29610;49.022;12.114;2022-12-29T05:17:26;97450.81;;;5.00;100.00
18795;BME280;29610;49.022;12.114;2022-12-29T05:19:55;97445.69;;;4.99;100.00
18795;BME280;29610;49.022;12.114;2022-12-29T05:22:24;97441.78;;;4.91;100.00
18795;BME280;29610;49.022;12.114;2022-12-29T05:24:56;97442.78;;;4.95;100.00
18795;BME280;29610;49.022;12.114;2022-12-29T05:27:25;97441.25;;;4.89;100.00
18795;BME280;29610;49.022;12.114;2022-12-29T05:30:11;97443.16;;;4.89;100.00
18795;BME280;29610;49.022;12.114;2022-12-29T05:32:40;97428.09;;;4.88;100.00
18795;BME280;29610;49.022;12.114;2022-12-29T05:35:09;97430.34;;;4.81;100.00
18795;BME280;29610;49.022;12.114;2022-12-29T05:37:37;97442.91;;;4.85;100.00
18795;BME280;29610;49.022;12.114;2022-12-29T05:40:10;97433.78;;;4.86;100.00
18795;BME280;29610;49.022;12.114;2022-12-29T05:42:40;97424.72;;;4.77;100.00
18795;BME280;29610;49.022;12.114;2022-12-29T05:45:28;97431.50;;;4.75;100.00
18795;BME280;29610;49.022;12.114;2022-12-29T05:48:23;97421.97;;;4.82;100.00
18795;BME280;29610;49.022;12.114;2022-12-29T05:51:18;97434.19;;;4.75;100.00
18795;BME280;29610;49.022;12.114;2022-12-29T05:53:49;97431.13;;;4.63;100.00
18795;BME280;29610;49.022;12.114;2022-12-29T05:56:19;97433.38;;;4.56;100.00
18795;BME280;29610;49.022;12.114;2022-12-29T05:58:54;97408.94;;;4.52;100.00
18795;BME280;29610;49.022;12.114;2022-12-29T06:01:23;97450.97;;;4.48;100.00
18795;BME280;29610;49.022;12.114;2022-12-29T06:03:53;97443.75;;;4.43;100.00
18795;BME280;29610;49.022;12.114;2022-12-29T06:06:22;97444.03;;;4.42;100.00
18795;BME280;29610;49.022;12.114;2022-12-29T06:08:52;97430.25;;;4.25;100.00
18795;BME280;29610;49.022;12.114;2022-12-29T06:11:22;97433.91;;;4.34;100.00
18795;BME280;29610;49.022;12.114;2022-12-29T06:13:55;97430.50;;;4.47;100.00
18795;BME280;29610;49.022;12.114;2022-12-29T06:16:24;97440.88;;;4.59;100.00
18795;BME280;29610;49.022;12.114;2022-12-29T06:18:57;97445.31;;;4.68;100.00
18795;BME280;29610;49.022;12.114;2022-12-29T06:21:26;97443.66;;;4.72;100.00
18795;BME280;29610;49.022;12.114;2022-12-29T06:23:54;97438.84;;;4.69;100.00
18795;BME280;29610;49.022;12.114;2022-12-29T06:26:24;97444.03;;;4.84;100.00
18795;BME280;29610;49.022;12.114;2022-12-29T06:28:53;97438.88;;;4.88;100.00
18795;BME280;29610;49.022;12.114;2022-12-29T06:31:22;97438.34;;;4.86;100.00
18795;BME280;29610;49.022;12.114;2022-12-29T06:33:51;97443.50;;;4.82;100.00
18795;BME280;29610;49.022;12.114;2022-12-29T06:36:19;97439.69;;;4.88;100.00
18795;BME280;29610;49.022;12.114;2022-12-29T06:38:49;97445.72;;;4.80;100.00
18795;BME280;29610;49.022;12.114;2022-12-29T06:41:19;97454.91;;;4.74;100.00
18795;BME280;29610;49.022;12.114;2022-12-29T06:44:30;97447.78;;;4.65;100.00
18795;BME280;29610;49.022;12.114;2022-12-29T06:47:04;97466.78;;;4.55;100.00
18795;BME280;29610;49.022;12.114;2022-12-29T06:49:34;97463.50;;;4.58;100.00
18795;BME280;29610;49.022;12.114;2022-12-29T06:52:04;97472.88;;;4.60;100.00
18795;BME280;29610;49.022;12.114;2022-12-29T06:54:39;97476.72;;;4.54;100.00
18795;BME280;29610;49.022;12.114;2022-12-29T06:57:07;97466.53;;;4.51;100.00
18795;BME280;29610;49.022;12.114;2022-12-29T06:59:37;97479.06;;;4.61;100.00
18795;BME280;29610;49.022;12.114;2022-12-29T07:02:06;97475.22;;;4.67;100.00
18795;BME280;29610;49.022;12.114;2022-12-29T07:04:35;97474.19;;;4.63;100.00
18795;BME280;29610;49.022;12.114;2022-12-29T07:07:04;97467.91;;;4.48;100.00
18795;BME280;29610;49.022;12.114;2022-12-29T07:09:33;97463.16;;;4.40;100.00
18795;BME280;29610;49.022;12.114;2022-12-29T07:12:02;97454.28;;;4.40;100.00
18795;BME280;29610;49.022;12.114;2022-12-29T07:14:30;97472.50;;;4.48;100.00
18795;BME280;29610;49.022;12.114;2022-12-29T07:17:10;97453.78;;;4.38;100.00
18795;BME280;29610;49.022;12.114;2022-12-29T07:19:38;97443.00;;;4.38;100.00
18795;BME280;29610;49.022;12.114;2022-12-29T07:22:08;97469.53;;;4.26;100.00
18795;BME280;29610;49.022;12.114;2022-12-29T07:24:38;97450.75;;;4.21;100.00
18795;BME280;29610;49.022;12.114;2022-12-29T07:27:08;97450.81;;;4.16;100.00
18795;BME280;29610;49.022;12.114;2022-12-29T07:29:37;97482.16;;;4.25;100.00
18795;BME280;29610;49.022;12.114;2022-12-29T07:32:06;97456.63;;;4.23;100.00
18795;BME280;29610;49.022;12.114;2022-12-29T07:34:36;97465.78;;;4.22;100.00
18795;BME280;29610;49.022;12.114;2022-12-29T07:37:07;97489.75;;;4.42;100.00
18795;BME280;29610;49.022;12.114;2022-12-29T07:39:35;97464.53;;;4.38;100.00
18795;BME280;29610;49.022;12.114;2022-12-29T07:42:04;97451.09;;;4.38;100.00
18795;BME280;29610;49.022;12.114;2022-12-29T07:44:44;97464.00;;;4.36;100.00
18795;BME280;29610;49.022;12.114;2022-12-29T07:47:16;97446.22;;;4.40;100.00
18795;BME280;29610;49.022;12.114;2022-12-29T07:49:46;97459.63;;;4.45;100.00
18795;BME280;29610;49.022;12.114;2022-12-29T07:52:15;97449.81;;;4.54;100.00
18795;BME280;29610;49.022;12.114;2022-12-29T07:54:43;97445.25;;;4.55;100.00
18795;BME280;29610;49.022;12.114;2022-12-29T07:57:12;97424.41;;;4.41;100.00
18795;BME280;29610;49.022;12.114;2022-12-29T07:59:41;97484.56;;;4.50;100.00
18795;BME280;29610;49.022;12.114;2022-12-29T08:02:11;97454.09;;;4.55;100.00
18795;BME280;29610;49.022;12.114;2022-12-29T08:04:39;97453.31;;;4.55;100.00
18795;BME280;29610;49.022;12.114;2022-12-29T08:07:10;97456.13;;;4.63;100.00
18795;BME280;29610;49.022;12.114;2022-12-29T08:09:38;97460.47;;;4.83;100.00
18795;BME280;29610;49.022;12.114;2022-12-29T08:12:10;97465.50;;;4.89;100.00
18795;BME280;29610;49.022;12.114;2022-12-29T08:14:38;97456.53;;;4.94;100.00
18795;BME280;29610;49.022;12.114;2022-12-29T08:17:07;97479.59;;;5.00;100.00
18795;BME280;29610;49.022;12.114;2022-12-29T08:19:36;97474.50;;;4.98;100.00
18795;BME280;29610;49.022;12.114;2022-12-29T08:22:05;97468.09;;;4.76;100.00
18795;BME280;29610;49.022;12.114;2022-12-29T08:24:35;97470.81;;;4.94;100.00
18795;BME280;29610;49.022;12.114;2022-12-29T08:27:04;97494.03;;;5.27;100.00
18795;BME280;29610;49.022;12.114;2022-12-29T08:29:46;97482.97;;;5.29;100.00
18795;BME280;29610;49.022;12.114;2022-12-29T08:32:15;97482.81;;;5.20;100.00
18795;BME280;29610;49.022;12.114;2022-12-29T08:34:45;97475.81;;;5.38;100.00
18795;BME280;29610;49.022;12.114;2022-12-29T08:37:14;97494.81;;;5.46;100.00
18795;BME280;29610;49.022;12.114;2022-12-29T08:39:44;97491.22;;;5.69;100.00
18795;BME280;29610;49.022;12.114;2022-12-29T08:42:13;97483.25;;;5.78;100.00
18795;BME280;29610;49.022;12.114;2022-12-29T08:44:42;97492.66;;;5.80;100.00
18795;BME280;29610;49.022;12.114;2022-12-29T08:47:12;97488.88;;;5.81;100.00
18795;BME280;29610;49.022;12.114;2022-12-29T08:49:40;97483.72;;;5.85;100.00
18795;BME280;29610;49.022;12.114;2022-12-29T08:52:09;97484.34;;;5.95;100.00
18795;BME280;29610;49.022;12.114;2022-12-29T08:54:38;97485.38;;;6.13;100.00
18795;BME280;29610;49.022;12.114;2022-12-29T08:57:08;97477.59;;;6.25;100.00
18795;BME280;29610;49.022;12.114;2022-12-29T08:59:44;97471.22;;;6.35;100.00
18795;BME280;29610;49.022;12.114;2022-12-29T09:02:14;97473.88;;;6.21;100.00
18795;BME280;29610;49.022;12.114;2022-12-29T09:04:52;97478.28;;;6.31;100.00
18795;BME280;29610;49.022;12.114;2022-12-29T09:07:20;97486.69;;;6.29;100.00
18795;BME280;29610;49.022;12.114;2022-12-29T09:09:50;97475.97;;;6.24;100.00
18795;BME280;29610;49.022;12.114;2022-12-29T09:12:20;97498.19;;;6.48;100.00
18795;BME280;29610;49.022;12.114;2022-12-29T09:14:50;97494.41;;;6.63;100.00
18795;BME280;29610;49.022;12.114;2022-12-29T09:17:19;97496.41;;;6.71;100.00
18795;BME280;29610;49.022;12.114;2022-12-29T09:20:06;97484.78;;;6.70;100.00
18795;BME280;29610;49.022;12.114;2022-12-29T09:22:36;97480.78;;;6.81;100.00
18795;BME280;29610;49.022;12.114;2022-12-29T09:25:06;97484.47;;;6.72;100.00
18795;BME280;29610;49.022;12.114;2022-12-29T09:27:37;97503.41;;;6.85;100.00
18795;BME280;29610;49.022;12.114;2022-12-29T09:30:09;97484.00;;;6.70;100.00
18795;BME280;29610;49.022;12.114;2022-12-29T09:32:38;97481.22;;;6.75;100.00
18795;BME280;29610;49.022;12.114;2022-12-29T09:35:12;97480.47;;;6.96;100.00
18795;BME280;29610;49.022;12.114;2022-12-29T09:37:41;97472.81;;;7.12;100.00
18795;BME280;29610;49.022;12.114;2022-12-29T09:40:24;97472.56;;;7.35;100.00
18795;BME280;29610;49.022;12.114;2022-12-29T09:46:14;97474.59;;;7.52;100.00
18795;BME280;29610;49.022;12.114;2022-12-29T09:48:54;97469.63;;;7.45;100.00
18795;BME280;29610;49.022;12.114;2022-12-29T09:51:25;97473.00;;;7.51;100.00
18795;BME280;29610;49.022;12.114;2022-12-29T09:53:59;97467.03;;;7.40;100.00
18795;BME280;29610;49.022;12.114;2022-12-29T09:56:30;97460.88;;;7.48;100.00
18795;BME280;29610;49.022;12.114;2022-12-29T09:59:10;97452.03;;;7.57;100.00
18795;BME280;29610;49.022;12.114;2022-12-29T10:01:46;97448.91;;;7.41;100.00
18795;BME280;29610;49.022;12.114;2022-12-29T10:04:18;97444.50;;;7.45;100.00
18795;BME280;29610;49.022;12.114;2022-12-29T10:06:57;97445.16;;;7.73;100.00
18795;BME280;29610;49.022;12.114;2022-12-29T10:09:58;97439.56;;;7.91;100.00
18795;BME280;29610;49.022;12.114;2022-12-29T10:12:46;97435.34;;;8.07;100.00
18795;BME280;29610;49.022;12.114;2022-12-29T10:15:38;97431.72;;;8.42;100.00
18795;BME280;29610;49.022;12.114;2022-12-29T10:18:32;97435.63;;;8.75;100.00
18795;BME280;29610;49.022;12.114;2022-12-29T10:21:16;97424.31;;;8.82;100.00
18795;BME280;29610;49.022;12.114;2022-12-29T10:23:52;97425.59;;;9.02;100.00
18795;BME280;29610;49.022;12.114;2022-12-29T10:26:27;97427.06;;;9.08;100.00
18795;BME280;29610;49.022;12.114;2022-12-29T10:29:03;97418.28;;;9.19;100.00
18795;BME280;29610;49.022;12.114;2022-12-29T10:31:39;97415.91;;;9.26;100.00
18795;BME280;29610;49.022;12.114;2022-12-29T10:34:19;97406.81;;;9.14;100.00
18795;BME280;29610;49.022;12.114;2022-12-29T10:36:55;97396.47;;;9.16;100.00
18795;BME280;29610;49.022;12.114;2022-12-29T10:39:33;97397.25;;;9.08;100.00
18795;BME280;29610;49.022;12.114;2022-12-29T10:42:13;97392.59;;;8.82;100.00
18795;BME280;29610;49.022;12.114;2022-12-29T10:44:42;97384.16;;;8.93;100.00
18795;BME280;29610;49.022;12.114;2022-12-29T10:47:18;97388.13;;;8.86;100.00
18795;BME280;29610;49.022;12.114;2022-12-29T10:49:50;97387.19;;;8.74;100.00
18795;BME280;29610;49.022;12.114;2022-12-29T10:52:20;97381.75;;;8.82;100.00
18795;BME280;29610;49.022;12.114;2022-12-29T10:54:56;97381.72;;;8.65;100.00
18795;BME280;29610;49.022;12.114;2022-12-29T10:57:32;97373.63;;;8.74;100.00
18795;BME280;29610;49.022;12.114;2022-12-29T11:00:11;97384.13;;;8.84;100.00
18795;BME280;29610;49.022;12.114;2022-12-29T11:03:08;97378.91;;;8.79;100.00
18795;BME280;29610;49.022;12.114;2022-12-29T11:05:46;97385.25;;;9.00;100.00
18795;BME280;29610;49.022;12.114;2022-12-29T11:08:22;97387.84;;;9.14;100.00
18795;BME280;29610;49.022;12.114;2022-12-29T11:10:59;97393.53;;;9.46;100.00
18795;BME280;29610;49.022;12.114;2022-12-29T11:13:31;97387.16;;;9.59;100.00
18795;BME280;29610;49.022;12.114;2022-12-29T11:16:06;97386.38;;;9.59;100.00
18795;BME280;29610;49.022;12.114;2022-12-29T11:18:39;97397.84;;;9.73;100.00
18795;BME280;29610;49.022;12.114;2022-12-29T11:21:31;97391.94;;;9.62;100.00
18795;BME280;29610;49.022;12.114;2022-12-29T11:24:02;97380.94;;;9.42;100.00
18795;BME280;29610;49.022;12.114;2022-12-29T11:26:32;97374.56;;;9.63;100.00
18795;BME280;29610;49.022;12.114;2022-12-29T11:29:22;97384.88;;;9.78;100.00
18795;BME280;29610;49.022;12.114;2022-12-29T11:31:54;97382.88;;;10.04;100.00
18795;BME280;29610;49.022;12.114;2022-12-29T11:34:30;97380.19;;;10.13;100.00
18795;BME280;29610;49.022;12.114;2022-12-29T11:37:04;97382.00;;;10.29;100.00
18795;BME280;29610;49.022;12.114;2022-12-29T11:39:41;97373.81;;;10.38;100.00
18795;BME280;29610;49.022;12.114;2022-12-29T11:42:16;97367.22;;;10.48;100.00
18795;BME280;29610;49.022;12.114;2022-12-29T11:44:49;97373.50;;;10.69;100.00
18795;BME280;29610;49.022;12.114;2022-12-29T11:47:28;97366.38;;;10.56;100.00
18795;BME280;29610;49.022;12.114;2022-12-29T11:50:05;97373.69;;;10.64;100.00
18795;BME280;29610;49.022;12.114;2022-12-29T11:52:37;97370.94;;;10.72;100.00
18795;BME280;29610;49.022;12.114;2022-12-29T11:55:18;97359.13;;;11.09;100.00
18795;BME280;29610;49.022;12.114;2022-12-29T11:57:53;97355.19;;;11.19;100.00
18795;BME280;29610;49.022;12.114;2022-12-29T12:00:30;97357.03;;;11.47;100.00
18795;BME280;29610;49.022;12.114;2022-12-29T12:03:07;97338.69;;;11.77;100.00
18795;BME280;29610;49.022;12.114;2022-12-29T12:05:47;97344.38;;;11.96;100.00
18795;BME280;29610;49.022;12.114;2022-12-29T12:08:32;97341.19;;;11.94;100.00
18795;BME280;29610;49.022;12.114;2022-12-29T12:11:09;97342.47;;;12.09;100.00
18795;BME280;29610;49.022;12.114;2022-12-29T12:13:56;97331.81;;;12.16;100.00
18795;BME280;29610;49.022;12.114;2022-12-29T12:16:47;97329.81;;;11.80;100.00
18795;BME280;29610;49.022;12.114;2022-12-29T12:19:34;97344.00;;;11.86;100.00
18795;BME280;29610;49.022;12.114;2022-12-29T12:22:19;97337.31;;;11.95;100.00
18795;BME280;29610;49.022;12.114;2022-12-29T12:24:56;97329.41;;;12.02;100.00
18795;BME280;29610;49.022;12.114;2022-12-29T12:27:33;97321.13;;;12.11;100.00
18795;BME280;29610;49.022;12.114;2022-12-29T12:30:14;97324.38;;;11.92;100.00
18795;BME280;29610;49.022;12.114;2022-12-29T12:32:52;97326.63;;;11.66;100.00
18795;BME280;29610;49.022;12.114;2022-12-29T12:35:34;97323.69;;;11.50;100.00
18795;BME280;29610;49.022;12.114;2022-12-29T12:38:24;97326.84;;;11.73;100.00
18795;BME280;29610;49.022;12.114;2022-12-29T12:41:09;97318.59;;;11.69;100.00
18795;BME280;29610;49.022;12.114;2022-12-29T12:43:56;97312.69;;;11.67;100.00
18795;BME280;29610;49.022;12.114;2022-12-29T12:50:26;97313.63;;;11.84;100.00
18795;BME280;29610;49.022;12.114;2022-12-29T12:56:25;97301.50;;;11.93;100.00
18795;BME280;29610;49.022;12.114;2022-12-29T12:59:03;97315.88;;;11.94;100.00
18795;BME280;29610;49.022;12.114;2022-12-29T13:01:47;97310.59;;;12.09;100.00
18795;BME280;29610;49.022;12.114;2022-12-29T13:04:41;97308.53;;;12.18;100.00
18795;BME280;29610;49.022;12.114;2022-12-29T13:07:25;97305.00;;;12.18;100.00
18795;BME280;29610;49.022;12.114;2022-12-29T13:10:15;97283.13;;;12.14;100.00
18795;BME280;29610;49.022;12.114;2022-12-29T13:13:05;97294.78;;;12.15;100.00
18795;BME280;29610;49.022;12.114;2022-12-29T13:15:48;97289.91;;;12.08;100.00
18795;BME280;29610;49.022;12.114;2022-12-29T13:18:27;97291.16;;;11.99;100.00
18795;BME280;29610;49.022;12.114;2022-12-29T13:21:08;97287.75;;;11.90;100.00
18795;BME280;29610;49.022;12.114;2022-12-29T13:23:52;97288.31;;;11.83;100.00
18795;BME280;29610;49.022;12.114;2022-12-29T13:26:30;97294.56;;;11.96;100.00
18795;BME280;29610;49.022;12.114;2022-12-29T13:29:13;97301.38;;;12.14;100.00
18795;BME280;29610;49.022;12.114;2022-12-29T13:31:53;97302.41;;;12.33;100.00
18795;BME280;29610;49.022;12.114;2022-12-29T13:34:41;97303.50;;;12.56;100.00
18795;BME280;29610;49.022;12.114;2022-12-29T13:37:17;97304.16;;;12.65;100.00
18795;BME280;29610;49.022;12.114;2022-12-29T13:39:52;97302.03;;;12.59;100.00
18795;BME280;29610;49.022;12.114;2022-12-29T13:42:25;97304.44;;;12.48;100.00
18795;BME280;29610;49.022;12.114;2022-12-29T13:45:01;97314.19;;;12.37;100.00